Hlavní strana
METAR-TAF:

METAR-TAF

Letiště :

Letiště Berlín-Tegel

Berlín, Německo

zeměpisná šířka: 52-34N, zeměpisná délka: 013-19E, výška: 37 m

Aktuální stav počasí

Zpráva byla vytvořena před 21 minutami, v 10:20 UTC
Západoseverozápadní vítr 12 kt, proměnlivý mezi západním a severním
Teplota 24°C
Vlhkost vzduchu 50%
Tlak 1014 hPa
Viditelnost 10 km a více
Skoro jasno ve výšce 4500 ft
Oblačno až skoro zataženo ve výšce 25000 ft

METAR: EDDT 181020Z 30012KT 260V360 9999 FEW045 BKN250 24/13 Q1014 NOSIG

Čas: 12:41 (10:41 UTC)

Předpověď počasí

Zpráva byla vytvořena před 5 hodinami a 41 minutami, v 05:00 UTC
Předpověď platná od 18 v 06 UTC do 19 v 06 UTC
Západní vítr 5 kt
Viditelnost 10 km a více
Žádná oblačnost pod 1500 m, nevyskytují se cumulonimby.
Změna
od 18 v 06 UTC do 18 v 09 UTC
Severozápadní vítr 10 kt
Změna
od 18 v 18 UTC do 18 v 20 UTC
Severoseverozápadní vítr 5 kt

TAF: EDDT 180500Z 1806/1906 28005KT CAVOK BECMG 1806/1809 31010KT BECMG 1818/1820 34005KT

Stav a předpovědi počasí z více než 4 000 letišť (zprávy METAR a TAF).

Červené a žluté tečky na mapě představují dostupné meteorologické stanice.

Když kurzor umístíte na tečku, zobrazí se název stanice.

Pak kliknutím zobrazíte stav a předpověď počasí.

Chcete-li změnit mapu, kliknutím na zelené tlačítko se znaménkem +mapu přiblížíte, kliknutím na zelené tlačítko se znaménkem – mapu oddálíte a kliknutím na zelené šipky přejdete na sousední mapy.


METAR-TAF: